Time;durP1;ratioP1;P1;durP2;ratioP2;P2;SDS_P1;SDS_P2;PMS_P1;PMS_P2;Temp;Humidity;BMP_temperature;BMP_pressure;BME280_temperature;BME280_humidity;BME280_pressure;Samples;Min_cycle;Max_cycle;Signal;HPM_P1;HPM_P2
2021/03/03 00:01:59;;;;;;;;;;;5.30;84.60;;;;;;5046747;28;19909;-71
2021/03/03 00:04:25;;;;;;;;;;;5.10;85.00;;;;;;5056595;28;19915;-71
2021/03/03 00:06:51;;;;;;;;;;;4.90;85.90;;;;;;5057210;28;19913;-71
2021/03/03 00:09:16;;;;;;;;;;;4.70;86.60;;;;;;5055975;28;19919;-71
2021/03/03 00:11:42;;;;;;;;;;;4.70;86.70;;;;;;5057125;28;19909;-71
2021/03/03 00:14:08;;;;;;;;;;;4.60;87.70;;;;;;5062970;28;19908;-72
2021/03/03 00:16:34;;;;;;;;;;;4.40;88.60;;;;;;5055370;28;19909;-71
2021/03/03 00:18:59;;;;;;;;;;;4.10;89.40;;;;;;5051557;28;19995;-71
2021/03/03 00:21:25;;;;;;;;;;;3.90;89.80;;;;;;5056752;28;19913;-71
2021/03/03 00:23:51;;;;;;;;;;;3.80;90.40;;;;;;5055520;28;20206;-72
2021/03/03 00:26:16;;;;;;;;;;;3.60;91.00;;;;;;5073327;28;19912;-71
2021/03/03 00:28:43;;;;;;;;;;;3.60;91.40;;;;;;5063903;28;20591;-71
2021/03/03 00:31:08;;;;;;;;;;;3.90;89.80;;;;;;5060155;28;19912;-71
2021/03/03 00:33:34;;;;;;;;;;;4.10;88.40;;;;;;5060892;28;19911;-71
2021/03/03 00:36:00;;;;;;;;;;;4.50;86.80;;;;;;5057859;28;19963;-71
2021/03/03 00:38:25;;;;;;;;;;;4.90;85.70;;;;;;5056771;28;19911;-71
2021/03/03 00:40:51;;;;;;;;;;;5.20;83.90;;;;;;5054665;28;19947;-71
2021/03/03 00:43:17;;;;;;;;;;;5.40;82.20;;;;;;5057884;28;19912;-71
2021/03/03 00:45:43;;;;;;;;;;;5.60;81.40;;;;;;5058479;28;19914;-71
2021/03/03 00:48:09;;;;;;;;;;;5.50;81.80;;;;;;5058137;28;20179;-71
2021/03/03 00:50:34;;;;;;;;;;;5.50;82.40;;;;;;5054580;28;19912;-71
2021/03/03 00:53:00;;;;;;;;;;;5.40;82.20;;;;;;5061879;28;20259;-71
2021/03/03 00:55:26;;;;;;;;;;;5.40;82.00;;;;;;5068395;28;19920;-71
2021/03/03 00:57:51;;;;;;;;;;;5.40;81.00;;;;;;5048592;28;19999;-71
2021/03/03 01:00:17;;;;;;;;;;;5.40;79.90;;;;;;5065534;28;20369;-71
2021/03/03 01:02:43;;;;;;;;;;;5.40;78.90;;;;;;5055268;28;19908;-71
2021/03/03 01:05:09;;;;;;;;;;;5.30;79.10;;;;;;5056389;28;19940;-71
2021/03/03 01:07:35;;;;;;;;;;;5.20;79.40;;;;;;5055533;28;19955;-72
2021/03/03 01:10:01;;;;;;;;;;;5.20;78.70;;;;;;5059525;28;19960;-71
2021/03/03 01:12:26;;;;;;;;;;;5.10;78.20;;;;;;5058377;28;19982;-71
2021/03/03 01:14:52;;;;;;;;;;;5.10;78.90;;;;;;5066853;28;19916;-71
2021/03/03 01:17:18;;;;;;;;;;;5.10;79.20;;;;;;5066311;28;19930;-71
2021/03/03 01:19:44;;;;;;;;;;;4.90;79.40;;;;;;5055439;28;19915;-72
2021/03/03 01:22:09;;;;;;;;;;;4.70;80.70;;;;;;5055134;28;19912;-71
2021/03/03 01:24:35;;;;;;;;;;;4.70;79.80;;;;;;5055190;28;19917;-71
2021/03/03 01:27:01;;;;;;;;;;;4.70;79.90;;;;;;5056108;28;20290;-72
2021/03/03 01:29:27;;;;;;;;;;;4.70;80.10;;;;;;5055901;28;19912;-71
2021/03/03 01:31:52;;;;;;;;;;;4.60;80.30;;;;;;5054769;28;19912;-71
2021/03/03 01:34:18;;;;;;;;;;;4.60;80.70;;;;;;5043041;28;20004;-71
2021/03/03 01:36:44;;;;;;;;;;;4.70;80.80;;;;;;5055445;28;19912;-71
2021/03/03 01:39:09;;;;;;;;;;;4.70;79.70;;;;;;5088502;28;20003;-71
2021/03/03 01:41:35;;;;;;;;;;;4.70;79.60;;;;;;5060497;28;19912;-71
2021/03/03 01:44:01;;;;;;;;;;;4.70;79.40;;;;;;5058503;28;20011;-71
2021/03/03 01:46:27;;;;;;;;;;;4.60;79.50;;;;;;5068883;28;20021;-71
2021/03/03 01:48:52;;;;;;;;;;;4.70;79.90;;;;;;5055223;28;19912;-71
2021/03/03 01:51:18;;;;;;;;;;;4.90;79.80;;;;;;5054723;28;19909;-71
2021/03/03 01:53:44;;;;;;;;;;;5.00;79.60;;;;;;5055017;28;19962;-72
2021/03/03 01:56:11;;;;;;;;;;;5.30;79.20;;;;;;5055900;28;19913;-71
2021/03/03 01:58:36;;;;;;;;;;;5.40;78.70;;;;;;5055661;28;19908;-71
2021/03/03 02:01:03;;;;;;;;;;;5.60;78.00;;;;;;5056782;28;20377;-71
2021/03/03 02:03:28;;;;;;;;;;;5.70;78.20;;;;;;5055409;28;20252;-71
2021/03/03 02:05:58;;;;;;;;;;;5.70;78.10;;;;;;5060506;28;19908;-71
2021/03/03 02:08:28;;;;;;;;;;;5.60;78.00;;;;;;5055721;28;19963;-71
2021/03/03 02:11:12;;;;;;;;;;;5.50;77.80;;;;;;5061703;28;19904;-71
2021/03/03 02:13:50;;;;;;;;;;;5.40;77.70;;;;;;5060655;28;19917;-71
2021/03/03 02:16:16;;;;;;;;;;;5.30;77.90;;;;;;5052920;28;20003;-71
2021/03/03 02:18:42;;;;;;;;;;;5.10;77.90;;;;;;5055481;28;19909;-72
2021/03/03 02:21:27;;;;;;;;;;;5.00;78.50;;;;;;5057732;28;19909;-71
2021/03/03 02:23:58;;;;;;;;;;;5.00;77.80;;;;;;5064440;28;19916;-71
2021/03/03 02:26:33;;;;;;;;;;;5.10;77.20;;;;;;5071995;28;19935;-71
2021/03/03 02:29:02;;;;;;;;;;;5.10;77.40;;;;;;5043161;28;20003;-71
2021/03/03 02:31:28;;;;;;;;;;;5.00;77.60;;;;;;5047713;28;19909;-71
2021/03/03 02:33:55;;;;;;;;;;;4.90;77.60;;;;;;5063289;28;19943;-71
2021/03/03 02:36:22;;;;;;;;;;;4.90;78.30;;;;;;5074249;28;20206;-71
2021/03/03 02:38:48;;;;;;;;;;;4.80;78.90;;;;;;5059238;28;19909;-71
2021/03/03 02:41:15;;;;;;;;;;;4.70;78.70;;;;;;5058522;28;19915;-72
2021/03/03 02:43:41;;;;;;;;;;;4.60;78.90;;;;;;5068313;28;19915;-71
2021/03/03 02:46:07;;;;;;;;;;;4.60;79.10;;;;;;5066869;28;19909;-71
2021/03/03 02:48:33;;;;;;;;;;;4.50;79.70;;;;;;5067619;28;19912;-72
2021/03/03 02:50:59;;;;;;;;;;;4.40;80.00;;;;;;5065502;28;19915;-71
2021/03/03 02:53:25;;;;;;;;;;;4.40;78.90;;;;;;5056014;28;19912;-71
2021/03/03 02:55:51;;;;;;;;;;;4.60;78.20;;;;;;5058857;28;19912;-71
2021/03/03 02:58:17;;;;;;;;;;;4.80;78.00;;;;;;5065513;28;19912;-71
2021/03/03 03:00:43;;;;;;;;;;;4.90;77.90;;;;;;5058182;28;19916;-72
2021/03/03 03:03:11;;;;;;;;;;;5.00;77.70;;;;;;5061970;28;19931;-72
2021/03/03 03:05:38;;;;;;;;;;;5.10;76.70;;;;;;5058453;28;20496;-73
2021/03/03 03:08:05;;;;;;;;;;;5.20;75.10;;;;;;5058191;28;19908;-72
2021/03/03 03:10:31;;;;;;;;;;;5.40;74.60;;;;;;5057846;28;20252;-73
2021/03/03 03:12:58;;;;;;;;;;;5.40;74.50;;;;;;5058117;28;21656;-73
2021/03/03 03:15:26;;;;;;;;;;;5.50;73.60;;;;;;5058437;28;19962;-73
2021/03/03 03:17:58;;;;;;;;;;;5.60;72.50;;;;;;5062131;28;19917;-73
2021/03/03 03:20:24;;;;;;;;;;;5.70;71.90;;;;;;5067302;28;20297;-72
2021/03/03 03:22:49;;;;;;;;;;;5.70;71.80;;;;;;5055743;28;19909;-73
2021/03/03 03:25:18;;;;;;;;;;;5.70;71.60;;;;;;5051841;28;19927;-72
2021/03/03 03:27:44;;;;;;;;;;;5.70;71.80;;;;;;5053469;28;19921;-71
2021/03/03 03:30:11;;;;;;;;;;;5.60;71.90;;;;;;5061248;28;19916;-73
2021/03/03 03:32:37;;;;;;;;;;;5.60;71.80;;;;;;5058585;28;19966;-72
2021/03/03 03:35:03;;;;;;;;;;;5.50;72.50;;;;;;5062414;28;19909;-73
2021/03/03 03:37:29;;;;;;;;;;;5.30;72.80;;;;;;5062513;28;20309;-72
2021/03/03 03:39:54;;;;;;;;;;;5.20;72.70;;;;;;5056584;28;19954;-72
2021/03/03 03:42:20;;;;;;;;;;;5.30;72.80;;;;;;5071816;28;19909;-72
2021/03/03 03:44:46;;;;;;;;;;;5.30;72.60;;;;;;5071828;28;19917;-73
2021/03/03 03:47:15;;;;;;;;;;;5.40;72.60;;;;;;5056494;28;19913;-73
2021/03/03 03:49:42;;;;;;;;;;;5.40;72.60;;;;;;5063471;28;19913;-72
2021/03/03 03:52:08;;;;;;;;;;;5.40;72.50;;;;;;5057923;28;19990;-72
2021/03/03 03:54:33;;;;;;;;;;;5.20;75.40;;;;;;5057590;28;20383;-72
2021/03/03 03:56:59;;;;;;;;;;;4.80;78.10;;;;;;5073127;28;19912;-73
2021/03/03 03:59:24;;;;;;;;;;;4.30;79.90;;;;;;5057532;28;19916;-73
2021/03/03 04:01:51;;;;;;;;;;;4.10;80.90;;;;;;5059857;28;19912;-73
2021/03/03 04:04:16;;;;;;;;;;;4.00;80.10;;;;;;5079032;28;19917;-74
2021/03/03 04:06:42;;;;;;;;;;;4.10;79.20;;;;;;5065209;28;19954;-73
2021/03/03 04:09:07;;;;;;;;;;;4.30;78.10;;;;;;5072946;28;19919;-72
2021/03/03 04:11:33;;;;;;;;;;;4.50;77.40;;;;;;5064367;28;20252;-73
2021/03/03 04:13:58;;;;;;;;;;;4.70;77.10;;;;;;5063673;28;19959;-73
2021/03/03 04:16:24;;;;;;;;;;;4.80;76.90;;;;;;5057533;28;20376;-73
2021/03/03 04:18:49;;;;;;;;;;;5.00;75.70;;;;;;5066405;28;19915;-72
2021/03/03 04:21:15;;;;;;;;;;;5.10;75.30;;;;;;5060058;28;19935;-73
2021/03/03 04:23:40;;;;;;;;;;;5.10;75.30;;;;;;5068954;28;19920;-73
2021/03/03 04:26:06;;;;;;;;;;;5.10;75.60;;;;;;5056621;28;19913;-72
2021/03/03 04:28:31;;;;;;;;;;;5.10;75.40;;;;;;5057846;28;19912;-72
2021/03/03 04:30:57;;;;;;;;;;;5.10;75.60;;;;;;5055143;28;19912;-73
2021/03/03 04:33:22;;;;;;;;;;;5.10;75.90;;;;;;5057461;28;20340;-73
2021/03/03 04:35:48;;;;;;;;;;;5.10;75.80;;;;;;5055796;28;19912;-73
2021/03/03 04:38:13;;;;;;;;;;;5.20;75.10;;;;;;5065283;28;20293;-73
2021/03/03 04:40:39;;;;;;;;;;;5.30;74.40;;;;;;5057772;28;20007;-73
2021/03/03 04:43:05;;;;;;;;;;;5.50;74.00;;;;;;5056412;28;19963;-73
2021/03/03 04:45:30;;;;;;;;;;;5.50;73.90;;;;;;5057671;28;19916;-73
2021/03/03 04:47:56;;;;;;;;;;;5.60;73.50;;;;;;5060280;28;19912;-73
2021/03/03 04:50:21;;;;;;;;;;;5.80;72.90;;;;;;5064036;28;19928;-72
2021/03/03 04:52:47;;;;;;;;;;;5.80;72.90;;;;;;5063133;28;19999;-72
2021/03/03 04:55:12;;;;;;;;;;;5.80;72.90;;;;;;5061511;28;19915;-73
2021/03/03 04:57:38;;;;;;;;;;;5.70;72.90;;;;;;5059126;28;19909;-73
2021/03/03 05:00:04;;;;;;;;;;;5.80;72.40;;;;;;5054941;28;19909;-73
2021/03/03 05:02:29;;;;;;;;;;;5.80;72.00;;;;;;5054078;28;20004;-73
2021/03/03 05:04:55;;;;;;;;;;;5.80;71.90;;;;;;5054700;28;19995;-72
2021/03/03 05:07:20;;;;;;;;;;;5.80;71.70;;;;;;5061475;28;19912;-72
2021/03/03 05:09:46;;;;;;;;;;;5.80;71.90;;;;;;5060741;28;19913;-71
2021/03/03 05:12:11;;;;;;;;;;;5.70;72.00;;;;;;5058004;28;20042;-71
2021/03/03 05:14:37;;;;;;;;;;;5.50;73.80;;;;;;5058889;28;19912;-72
2021/03/03 05:17:03;;;;;;;;;;;5.10;76.30;;;;;;5053498;28;19912;-72
2021/03/03 05:19:28;;;;;;;;;;;4.70;76.80;;;;;;5051570;28;19982;-72
2021/03/03 05:21:54;;;;;;;;;;;4.60;77.50;;;;;;5055460;28;20244;-72
2021/03/03 05:24:19;;;;;;;;;;;4.50;76.90;;;;;;5054364;28;20015;-73
2021/03/03 05:26:45;;;;;;;;;;;4.30;78.10;;;;;;5055725;28;19913;-72
2021/03/03 05:29:10;;;;;;;;;;;4.20;78.90;;;;;;5055630;28;19949;-72
2021/03/03 05:31:36;;;;;;;;;;;4.20;77.60;;;;;;5048198;28;19908;-75
2021/03/03 05:34:02;;;;;;;;;;;4.40;76.10;;;;;;5053954;28;19917;-71
2021/03/03 05:36:28;;;;;;;;;;;4.70;75.20;;;;;;5050454;28;19909;-73
2021/03/03 05:38:53;;;;;;;;;;;4.70;75.10;;;;;;5054699;28;20323;-72
2021/03/03 05:41:23;;;;;;;;;;;4.70;75.40;;;;;;5056537;28;19915;-72
2021/03/03 05:43:49;;;;;;;;;;;4.90;74.80;;;;;;5056372;28;19916;-72
2021/03/03 05:46:14;;;;;;;;;;;5.20;73.20;;;;;;5067621;28;19908;-73
2021/03/03 05:48:44;;;;;;;;;;;5.50;71.70;;;;;;5055201;28;20371;-72
2021/03/03 05:51:10;;;;;;;;;;;5.80;70.80;;;;;;5054462;28;19909;-74
2021/03/03 05:53:36;;;;;;;;;;;5.90;70.30;;;;;;5058866;28;19912;-72
2021/03/03 05:56:03;;;;;;;;;;;5.90;69.80;;;;;;5057697;28;19955;-73
2021/03/03 05:58:29;;;;;;;;;;;6.00;69.60;;;;;;5054831;28;19913;-72
2021/03/03 06:00:55;;;;;;;;;;;6.00;69.40;;;;;;5053930;28;19999;-73
2021/03/03 06:03:22;;;;;;;;;;;6.20;68.40;;;;;;5055667;28;19912;-73
2021/03/03 06:05:48;;;;;;;;;;;6.20;68.10;;;;;;5062994;28;19915;-73
2021/03/03 06:08:17;;;;;;;;;;;6.00;70.40;;;;;;5059422;28;19908;-72
2021/03/03 06:10:42;;;;;;;;;;;5.80;71.50;;;;;;5057561;28;20015;-72
2021/03/03 06:13:08;;;;;;;;;;;5.40;73.00;;;;;;5058208;28;20013;-73
2021/03/03 06:15:33;;;;;;;;;;;5.20;73.60;;;;;;5058307;28;20369;-72
2021/03/03 06:17:59;;;;;;;;;;;4.90;75.30;;;;;;5056798;28;19912;-72
2021/03/03 06:20:25;;;;;;;;;;;4.70;76.40;;;;;;5057667;28;19909;-72
2021/03/03 06:22:50;;;;;;;;;;;4.50;77.00;;;;;;5059222;28;19909;-72
2021/03/03 06:25:20;;;;;;;;;;;4.40;77.50;;;;;;5059291;28;19924;-74
2021/03/03 06:27:46;;;;;;;;;;;4.30;77.40;;;;;;5059322;28;19909;-73
2021/03/03 06:30:13;;;;;;;;;;;4.30;76.80;;;;;;5058513;28;19982;-74
2021/03/03 06:32:52;;;;;;;;;;;4.40;76.30;;;;;;5049987;28;19908;-72
2021/03/03 06:35:18;;;;;;;;;;;4.60;75.20;;;;;;5059357;28;19911;-72
2021/03/03 06:37:54;;;;;;;;;;;4.70;75.50;;;;;;5059244;28;19947;-72
2021/03/03 06:40:19;;;;;;;;;;;4.80;76.10;;;;;;5057559;28;19943;-73
2021/03/03 06:42:45;;;;;;;;;;;4.80;76.20;;;;;;5059124;28;20304;-73
2021/03/03 06:45:24;;;;;;;;;;;5.00;76.60;;;;;;5059035;28;20348;-73
2021/03/03 06:47:49;;;;;;;;;;;5.00;77.50;;;;;;5057679;28;19911;-73
2021/03/03 06:50:15;;;;;;;;;;;4.90;78.00;;;;;;5058768;28;19921;-73
2021/03/03 06:52:41;;;;;;;;;;;4.80;78.00;;;;;;5058692;28;20224;-73
2021/03/03 06:55:07;;;;;;;;;;;4.80;77.60;;;;;;5058769;28;19913;-72
2021/03/03 06:57:33;;;;;;;;;;;5.00;78.10;;;;;;5058893;28;19911;-73
2021/03/03 06:59:59;;;;;;;;;;;5.00;77.70;;;;;;5058277;28;20289;-72
2021/03/03 07:02:29;;;;;;;;;;;5.10;78.10;;;;;;5057490;28;19909;-73
2021/03/03 07:04:58;;;;;;;;;;;5.30;75.50;;;;;;5058274;28;19967;-73
2021/03/03 07:07:24;;;;;;;;;;;5.70;73.50;;;;;;5058656;28;19904;-74
2021/03/03 07:09:51;;;;;;;;;;;6.10;72.00;;;;;;5058397;28;19917;-73
2021/03/03 07:12:17;;;;;;;;;;;6.50;69.60;;;;;;5058383;28;19999;-73
2021/03/03 07:14:44;;;;;;;;;;;6.80;68.80;;;;;;5058479;28;20221;-72
2021/03/03 07:17:19;;;;;;;;;;;6.90;70.00;;;;;;5056199;28;20215;-72
2021/03/03 07:19:49;;;;;;;;;;;6.80;72.30;;;;;;5058064;28;19912;-73
2021/03/03 07:22:24;;;;;;;;;;;6.70;72.70;;;;;;5057901;28;19916;-72
2021/03/03 07:24:56;;;;;;;;;;;6.60;72.80;;;;;;5057638;28;19978;-73
2021/03/03 07:27:24;;;;;;;;;;;6.60;71.30;;;;;;5057723;28;19909;-73
2021/03/03 07:29:51;;;;;;;;;;;6.60;71.10;;;;;;5056689;28;19912;-73
2021/03/03 07:32:17;;;;;;;;;;;6.80;72.00;;;;;;5056866;28;20364;-73
2021/03/03 07:34:47;;;;;;;;;;;6.80;72.80;;;;;;5057372;28;19908;-73
2021/03/03 07:37:14;;;;;;;;;;;6.90;73.80;;;;;;5057448;28;19951;-72
2021/03/03 07:39:42;;;;;;;;;;;7.00;74.10;;;;;;5056908;28;19909;-73
2021/03/03 07:42:09;;;;;;;;;;;7.20;74.30;;;;;;5058065;28;19905;-72
2021/03/03 07:44:35;;;;;;;;;;;7.30;73.20;;;;;;5057767;28;20214;-73
2021/03/03 07:47:01;;;;;;;;;;;7.50;73.00;;;;;;5056544;28;19962;-73
2021/03/03 07:49:27;;;;;;;;;;;7.60;72.70;;;;;;5057558;28;19917;-73
2021/03/03 07:51:53;;;;;;;;;;;7.70;73.60;;;;;;5057880;28;19958;-73
2021/03/03 07:54:18;;;;;;;;;;;7.70;73.80;;;;;;5056541;28;19916;-74
2021/03/03 07:56:44;;;;;;;;;;;7.80;74.70;;;;;;5057180;28;19909;-74
2021/03/03 07:59:13;;;;;;;;;;;7.70;73.70;;;;;;5057500;28;19963;-73
2021/03/03 08:01:38;;;;;;;;;;;7.70;73.70;;;;;;5056040;28;20048;-72
2021/03/03 08:04:04;;;;;;;;;;;7.70;74.70;;;;;;5057256;28;20277;-72
2021/03/03 08:06:35;;;;;;;;;;;7.80;75.50;;;;;;5053319;28;19999;-72
2021/03/03 08:09:03;;;;;;;;;;;8.10;71.20;;;;;;5043797;28;20015;-74
2021/03/03 08:11:29;;;;;;;;;;;8.30;69.50;;;;;;5057128;28;19908;-73
2021/03/03 08:13:55;;;;;;;;;;;8.50;67.90;;;;;;5057606;28;19930;-73
2021/03/03 08:16:20;;;;;;;;;;;8.60;67.40;;;;;;5055253;28;19909;-72
2021/03/03 08:18:49;;;;;;;;;;;8.70;71.10;;;;;;5056870;28;20221;-73
2021/03/03 08:21:14;;;;;;;;;;;8.70;70.30;;;;;;5057333;28;19904;-72
2021/03/03 08:23:41;;;;;;;;;;;9.00;67.90;;;;;;5056502;28;19932;-73
2021/03/03 08:26:29;;;;;;;;;;;9.10;69.80;;;;;;5056155;28;19913;-73
2021/03/03 08:29:14;;;;;;;;;;;9.00;70.80;;;;;;5049083;28;19935;-72
2021/03/03 08:31:41;;;;;;;;;;;9.00;71.60;;;;;;5055257;28;19908;-74
2021/03/03 08:34:08;;;;;;;;;;;8.80;71.70;;;;;;5056697;28;20018;-72
2021/03/03 08:36:34;;;;;;;;;;;8.60;72.70;;;;;;5037855;28;19909;-73
2021/03/03 08:39:01;;;;;;;;;;;8.50;73.70;;;;;;5042316;28;19920;-73
2021/03/03 08:41:28;;;;;;;;;;;8.50;74.90;;;;;;5055840;28;19917;-73
2021/03/03 08:43:59;;;;;;;;;;;8.30;75.30;;;;;;5043588;28;19909;-73
2021/03/03 08:46:25;;;;;;;;;;;8.20;74.80;;;;;;5039276;28;19908;-73
2021/03/03 08:48:53;;;;;;;;;;;8.40;74.40;;;;;;5058314;28;19919;-74
2021/03/03 08:51:32;;;;;;;;;;;8.60;74.90;;;;;;5056566;28;19912;-74
2021/03/03 08:54:08;;;;;;;;;;;8.70;74.70;;;;;;5056184;28;19905;-73
2021/03/03 08:56:48;;;;;;;;;;;8.70;75.80;;;;;;5054219;28;20193;-74
2021/03/03 08:59:28;;;;;;;;;;;8.80;75.30;;;;;;5056296;28;19909;-73
2021/03/03 09:02:02;;;;;;;;;;;9.00;74.50;;;;;;5055084;28;20187;-72
2021/03/03 09:04:46;;;;;;;;;;;9.30;72.90;;;;;;5055877;28;19908;-74
2021/03/03 09:07:18;;;;;;;;;;;9.50;73.10;;;;;;5056262;28;19947;-73
2021/03/03 09:09:54;;;;;;;;;;;9.30;72.50;;;;;;5055068;28;19970;-73
2021/03/03 09:12:26;;;;;;;;;;;9.10;72.60;;;;;;5071942;28;20015;-73
2021/03/03 09:14:52;;;;;;;;;;;9.00;73.00;;;;;;5056128;28;19909;-73
2021/03/03 09:17:28;;;;;;;;;;;9.10;72.70;;;;;;5055029;28;19993;-74
2021/03/03 09:19:54;;;;;;;;;;;8.90;72.30;;;;;;5055501;28;19917;-72
2021/03/03 09:22:28;;;;;;;;;;;8.80;73.10;;;;;;5056037;28;19912;-72
2021/03/03 09:24:54;;;;;;;;;;;8.90;72.10;;;;;;5055443;28;19917;-72
2021/03/03 09:27:20;;;;;;;;;;;9.20;70.60;;;;;;5049689;28;19909;-73
2021/03/03 09:29:47;;;;;;;;;;;9.40;69.80;;;;;;5054789;28;19917;-72
2021/03/03 09:32:13;;;;;;;;;;;9.50;69.60;;;;;;5054734;28;19905;-72
2021/03/03 09:34:47;;;;;;;;;;;9.70;68.80;;;;;;5054997;28;19982;-72
2021/03/03 09:37:16;;;;;;;;;;;10.10;68.50;;;;;;5055377;28;19905;-73
2021/03/03 09:39:42;;;;;;;;;;;10.40;66.70;;;;;;5055401;28;19974;-73
2021/03/03 09:42:08;;;;;;;;;;;10.80;66.60;;;;;;5055992;28;20305;-73
2021/03/03 09:44:47;;;;;;;;;;;11.10;66.40;;;;;;5054805;28;19909;-72
2021/03/03 09:47:23;;;;;;;;;;;11.00;64.70;;;;;;5054570;28;19909;-72
2021/03/03 09:49:48;;;;;;;;;;;11.20;65.00;;;;;;5054035;28;19913;-73
2021/03/03 09:52:14;;;;;;;;;;;11.30;63.60;;;;;;5054891;28;19915;-73
2021/03/03 09:54:40;;;;;;;;;;;11.30;64.70;;;;;;5055760;28;19951;-73
2021/03/03 09:57:08;;;;;;;;;;;11.40;65.60;;;;;;5054857;28;20003;-72
2021/03/03 09:59:34;;;;;;;;;;;11.40;65.50;;;;;;5055597;28;19939;-73
2021/03/03 10:02:00;;;;;;;;;;;11.60;65.70;;;;;;5054374;28;19912;-73
2021/03/03 10:04:26;;;;;;;;;;;11.70;63.40;;;;;;5055324;28;19915;-73
2021/03/03 10:06:53;;;;;;;;;;;11.80;63.10;;;;;;5055405;28;19915;-73
2021/03/03 10:09:19;;;;;;;;;;;11.90;65.00;;;;;;5054014;28;19919;-72
2021/03/03 10:11:44;;;;;;;;;;;12.00;65.00;;;;;;5055346;28;19912;-73
2021/03/03 10:14:10;;;;;;;;;;;12.20;65.40;;;;;;5055354;28;19940;-73
2021/03/03 10:16:35;;;;;;;;;;;12.70;64.80;;;;;;5054383;28;19908;-74
2021/03/03 10:19:01;;;;;;;;;;;12.80;63.20;;;;;;5055270;28;19909;-73
2021/03/03 10:21:27;;;;;;;;;;;12.90;62.60;;;;;;5054374;28;19908;-73
2021/03/03 10:23:52;;;;;;;;;;;13.10;61.90;;;;;;5044429;28;19962;-73
2021/03/03 10:26:22;;;;;;;;;;;13.30;61.30;;;;;;5042491;28;20305;-73
2021/03/03 10:28:50;;;;;;;;;;;13.70;60.50;;;;;;5054895;28;19916;-72
2021/03/03 10:31:16;;;;;;;;;;;13.60;59.80;;;;;;5053746;28;19962;-74
2021/03/03 10:33:42;;;;;;;;;;;13.80;60.30;;;;;;5055040;28;19917;-73
2021/03/03 10:36:14;;;;;;;;;;;13.70;58.10;;;;;;5054860;28;19909;-73
2021/03/03 10:38:46;;;;;;;;;;;14.20;59.10;;;;;;5055453;28;19909;-73
2021/03/03 10:41:21;;;;;;;;;;;14.20;56.50;;;;;;5054480;28;20319;-73
2021/03/03 10:43:48;;;;;;;;;;;14.60;54.50;;;;;;5054713;28;19908;-73
2021/03/03 10:46:16;;;;;;;;;;;14.90;50.70;;;;;;5053878;28;20217;-73
2021/03/03 10:48:42;;;;;;;;;;;15.10;49.80;;;;;;5055459;28;19996;-72
2021/03/03 10:51:08;;;;;;;;;;;15.30;48.60;;;;;;5058058;28;20003;-74
2021/03/03 10:53:49;;;;;;;;;;;15.50;48.30;;;;;;5058953;28;19904;-72
2021/03/03 10:56:20;;;;;;;;;;;15.50;48.00;;;;;;5058432;28;20476;-72
2021/03/03 10:58:45;;;;;;;;;;;15.80;48.50;;;;;;5058596;28;19991;-71
2021/03/03 11:01:11;;;;;;;;;;;15.90;47.70;;;;;;5057598;28;19998;-71
2021/03/03 11:03:57;;;;;;;;;;;16.10;48.20;;;;;;5058681;28;20224;-73
2021/03/03 11:06:29;;;;;;;;;;;16.30;48.40;;;;;;5057111;28;19915;-74
2021/03/03 11:08:55;;;;;;;;;;;16.30;47.10;;;;;;5057622;28;19952;-73
2021/03/03 11:11:20;;;;;;;;;;;16.40;48.20;;;;;;5055050;28;19943;-72
2021/03/03 11:13:46;;;;;;;;;;;16.50;47.20;;;;;;5057617;28;19959;-72
2021/03/03 11:16:11;;;;;;;;;;;16.50;47.50;;;;;;5057090;28;19908;-72
2021/03/03 11:18:37;;;;;;;;;;;16.50;47.00;;;;;;5057460;28;19905;-75
2021/03/03 11:21:02;;;;;;;;;;;16.80;47.70;;;;;;5053233;28;19915;-72
2021/03/03 11:23:28;;;;;;;;;;;16.80;47.60;;;;;;5058213;28;19988;-73
2021/03/03 11:25:57;;;;;;;;;;;17.10;48.90;;;;;;5058353;28;20183;-74
2021/03/03 11:28:26;;;;;;;;;;;17.00;47.30;;;;;;5057978;28;19930;-73
2021/03/03 11:30:52;;;;;;;;;;;16.70;48.60;;;;;;5056769;28;20261;-72
2021/03/03 11:33:17;;;;;;;;;;;16.30;48.60;;;;;;5058102;28;19909;-72
2021/03/03 11:35:43;;;;;;;;;;;15.60;49.40;;;;;;5061986;28;19908;-74
2021/03/03 11:38:09;;;;;;;;;;;15.20;51.00;;;;;;5058145;28;19961;-73
2021/03/03 11:40:34;;;;;;;;;;;15.10;53.10;;;;;;5056745;28;19908;-72
2021/03/03 11:43:00;;;;;;;;;;;15.20;55.10;;;;;;5057705;28;19917;-72
2021/03/03 11:45:26;;;;;;;;;;;15.40;54.80;;;;;;5057953;28;19963;-72
2021/03/03 11:47:51;;;;;;;;;;;15.50;55.30;;;;;;5056376;28;20210;-73
2021/03/03 11:50:17;;;;;;;;;;;15.60;55.60;;;;;;5057035;28;20540;-73
2021/03/03 11:52:42;;;;;;;;;;;15.40;56.20;;;;;;5057768;28;19909;-74
2021/03/03 11:55:08;;;;;;;;;;;15.30;56.00;;;;;;5057446;28;20286;-73
2021/03/03 11:57:34;;;;;;;;;;;15.20;57.30;;;;;;5056616;28;19913;-73
2021/03/03 11:59:59;;;;;;;;;;;15.30;58.00;;;;;;5056715;28;20213;-73
2021/03/03 12:02:25;;;;;;;;;;;15.80;57.50;;;;;;5054427;28;20013;-72
2021/03/03 12:04:50;;;;;;;;;;;16.10;56.50;;;;;;5056391;28;19909;-73
2021/03/03 12:07:16;;;;;;;;;;;16.10;56.10;;;;;;5057198;28;20301;-73
2021/03/03 12:09:42;;;;;;;;;;;15.80;56.00;;;;;;5057143;28;19913;-73
2021/03/03 12:12:07;;;;;;;;;;;15.70;56.30;;;;;;5057049;28;19909;-73
2021/03/03 12:14:33;;;;;;;;;;;15.70;56.30;;;;;;5057181;28;19961;-73
2021/03/03 12:16:58;;;;;;;;;;;16.00;56.30;;;;;;5046292;28;19916;-73
2021/03/03 12:19:24;;;;;;;;;;;15.90;55.50;;;;;;5052621;28;19909;-73
2021/03/03 12:21:50;;;;;;;;;;;16.00;56.20;;;;;;5053623;28;19915;-73
2021/03/03 12:24:15;;;;;;;;;;;16.00;55.60;;;;;;5054468;28;19943;-73
2021/03/03 12:26:41;;;;;;;;;;;15.80;56.00;;;;;;5056261;28;19918;-73
2021/03/03 12:29:06;;;;;;;;;;;15.90;56.10;;;;;;5056251;28;19912;-73
2021/03/03 12:31:32;;;;;;;;;;;16.00;56.00;;;;;;5055162;28;19908;-72
2021/03/03 12:33:57;;;;;;;;;;;16.10;55.20;;;;;;5046314;28;19916;-73
2021/03/03 12:36:23;;;;;;;;;;;16.10;53.50;;;;;;5054794;28;19959;-73
2021/03/03 12:38:49;;;;;;;;;;;15.80;54.00;;;;;;5053506;28;19959;-73
2021/03/03 12:41:14;;;;;;;;;;;15.50;54.50;;;;;;5055441;28;19962;-73
2021/03/03 12:43:40;;;;;;;;;;;15.50;56.20;;;;;;5052871;28;19920;-73
2021/03/03 12:46:05;;;;;;;;;;;15.70;55.00;;;;;;5053371;28;19998;-73
2021/03/03 12:48:31;;;;;;;;;;;15.70;54.10;;;;;;5052051;28;19909;-73
2021/03/03 12:50:56;;;;;;;;;;;15.60;53.60;;;;;;5048967;28;19980;-73
2021/03/03 12:53:22;;;;;;;;;;;15.30;53.30;;;;;;5056607;28;19904;-73
2021/03/03 12:55:47;;;;;;;;;;;15.30;54.40;;;;;;5056449;28;20227;-73
2021/03/03 12:58:13;;;;;;;;;;;15.30;53.90;;;;;;5043729;28;19928;-73
2021/03/03 13:00:39;;;;;;;;;;;15.40;54.10;;;;;;5055638;28;19916;-73
2021/03/03 13:03:04;;;;;;;;;;;15.40;54.50;;;;;;5054027;28;19913;-73
2021/03/03 13:05:30;;;;;;;;;;;15.20;54.60;;;;;;5055810;28;19908;-73
2021/03/03 13:07:55;;;;;;;;;;;15.00;54.70;;;;;;5056167;28;19943;-72
2021/03/03 13:10:21;;;;;;;;;;;14.70;55.60;;;;;;5055757;28;19912;-72
2021/03/03 13:12:46;;;;;;;;;;;14.60;56.30;;;;;;5048078;28;19908;-74
2021/03/03 13:15:12;;;;;;;;;;;14.60;56.80;;;;;;5044664;28;19913;-73
2021/03/03 13:17:38;;;;;;;;;;;14.60;56.40;;;;;;5054868;28;19910;-73
2021/03/03 13:20:08;;;;;;;;;;;14.80;57.00;;;;;;5055831;28;19915;-73
2021/03/03 13:22:33;;;;;;;;;;;14.70;57.20;;;;;;5056215;28;19947;-72
2021/03/03 13:24:59;;;;;;;;;;;14.70;55.70;;;;;;5055094;28;19956;-73
2021/03/03 13:27:24;;;;;;;;;;;14.80;55.00;;;;;;5055627;28;19970;-73
2021/03/03 13:29:50;;;;;;;;;;;15.00;55.30;;;;;;5053939;28;19924;-73
2021/03/03 13:32:16;;;;;;;;;;;15.10;54.50;;;;;;5054734;28;20194;-73
2021/03/03 13:34:42;;;;;;;;;;;15.50;53.00;;;;;;5054992;28;19931;-72
2021/03/03 13:37:08;;;;;;;;;;;15.30;52.90;;;;;;5054935;28;19909;-72
2021/03/03 13:39:37;;;;;;;;;;;15.40;53.30;;;;;;5055308;28;19962;-73
2021/03/03 13:42:03;;;;;;;;;;;15.40;52.70;;;;;;5054692;28;20309;-73
2021/03/03 13:44:29;;;;;;;;;;;15.40;53.30;;;;;;5055964;28;20244;-72
2021/03/03 13:46:54;;;;;;;;;;;15.30;53.30;;;;;;5054692;28;19931;-73
2021/03/03 13:49:20;;;;;;;;;;;15.10;54.00;;;;;;5054762;28;19939;-71
2021/03/03 13:51:46;;;;;;;;;;;15.10;54.00;;;;;;5055559;28;19913;-71
2021/03/03 13:54:17;;;;;;;;;;;15.10;54.40;;;;;;5055288;28;19904;-71
2021/03/03 13:56:43;;;;;;;;;;;15.20;55.30;;;;;;5054224;28;19995;-72
2021/03/03 13:59:08;;;;;;;;;;;15.20;54.30;;;;;;5055083;28;20310;-73
2021/03/03 14:01:37;;;;;;;;;;;15.30;54.80;;;;;;5052851;28;19915;-73
2021/03/03 14:04:04;;;;;;;;;;;15.10;54.60;;;;;;5055650;28;19916;-73
2021/03/03 14:06:30;;;;;;;;;;;15.10;55.20;;;;;;5054298;28;19920;-72
2021/03/03 14:08:55;;;;;;;;;;;15.20;55.40;;;;;;5046624;28;19920;-72
2021/03/03 14:11:21;;;;;;;;;;;15.20;54.50;;;;;;5050732;28;19916;-72
2021/03/03 14:13:46;;;;;;;;;;;15.00;54.60;;;;;;5050999;28;19909;-72
2021/03/03 14:16:14;;;;;;;;;;;14.90;53.20;;;;;;5049630;28;20007;-73
2021/03/03 14:18:43;;;;;;;;;;;14.80;54.00;;;;;;5050717;28;19954;-73
2021/03/03 14:21:09;;;;;;;;;;;14.70;53.70;;;;;;5052616;28;19940;-72
2021/03/03 14:23:34;;;;;;;;;;;14.50;54.90;;;;;;5051924;28;19955;-72
2021/03/03 14:26:00;;;;;;;;;;;14.40;55.40;;;;;;5059127;28;20228;-73